sensor_id;sensor_type;location;lat;lon;timestamp;P1;durP1;ratioP1;P2;durP2;ratioP2
6093;SDS011;19964;42.060;24.700;2023-12-07T00:01:49;13.50;;;10.00;;
6093;SDS011;19964;42.060;24.700;2023-12-07T00:04:16;14.33;;;9.13;;
6093;SDS011;19964;42.060;24.700;2023-12-07T00:06:43;12.70;;;9.97;;
6093;SDS011;19964;42.060;24.700;2023-12-07T00:09:10;10.67;;;8.87;;
6093;SDS011;19964;42.060;24.700;2023-12-07T00:11:38;12.93;;;9.30;;
6093;SDS011;19964;42.060;24.700;2023-12-07T00:14:05;14.87;;;9.23;;
6093;SDS011;19964;42.060;24.700;2023-12-07T00:16:32;11.40;;;8.87;;
6093;SDS011;19964;42.060;24.700;2023-12-07T00:18:59;13.53;;;9.30;;
6093;SDS011;19964;42.060;24.700;2023-12-07T00:21:26;11.70;;;8.57;;
6093;SDS011;19964;42.060;24.700;2023-12-07T00:23:53;11.40;;;8.60;;
6093;SDS011;19964;42.060;24.700;2023-12-07T00:26:20;10.10;;;8.53;;
6093;SDS011;19964;42.060;24.700;2023-12-07T00:28:49;9.30;;;8.30;;
6093;SDS011;19964;42.060;24.700;2023-12-07T00:31:16;11.73;;;9.20;;
6093;SDS011;19964;42.060;24.700;2023-12-07T00:33:45;10.87;;;8.37;;
6093;SDS011;19964;42.060;24.700;2023-12-07T00:36:12;8.50;;;7.43;;
6093;SDS011;19964;42.060;24.700;2023-12-07T00:38:39;13.80;;;8.43;;
6093;SDS011;19964;42.060;24.700;2023-12-07T00:41:07;9.90;;;8.60;;
6093;SDS011;19964;42.060;24.700;2023-12-07T00:43:34;10.03;;;7.77;;
6093;SDS011;19964;42.060;24.700;2023-12-07T00:46:03;9.33;;;8.03;;
6093;SDS011;19964;42.060;24.700;2023-12-07T00:48:30;10.60;;;7.80;;
6093;SDS011;19964;42.060;24.700;2023-12-07T00:50:57;9.77;;;8.30;;
6093;SDS011;19964;42.060;24.700;2023-12-07T00:53:24;10.27;;;8.00;;
6093;SDS011;19964;42.060;24.700;2023-12-07T00:55:51;11.77;;;8.70;;
6093;SDS011;19964;42.060;24.700;2023-12-07T00:58:18;10.53;;;8.20;;
6093;SDS011;19964;42.060;24.700;2023-12-07T01:00:45;8.40;;;7.50;;
6093;SDS011;19964;42.060;24.700;2023-12-07T01:03:14;11.60;;;8.43;;
6093;SDS011;19964;42.060;24.700;2023-12-07T01:05:41;9.07;;;7.93;;
6093;SDS011;19964;42.060;24.700;2023-12-07T01:08:08;8.57;;;7.20;;
6093;SDS011;19964;42.060;24.700;2023-12-07T01:10:35;12.70;;;7.57;;
6093;SDS011;19964;42.060;24.700;2023-12-07T01:13:02;8.87;;;7.67;;
6093;SDS011;19964;42.060;24.700;2023-12-07T01:15:29;9.67;;;7.90;;
6093;SDS011;19964;42.060;24.700;2023-12-07T01:17:56;9.80;;;8.03;;
6093;SDS011;19964;42.060;24.700;2023-12-07T01:20:25;9.13;;;8.07;;
6093;SDS011;19964;42.060;24.700;2023-12-07T01:22:53;10.00;;;7.50;;
6093;SDS011;19964;42.060;24.700;2023-12-07T01:25:20;11.77;;;7.60;;
6093;SDS011;19964;42.060;24.700;2023-12-07T01:27:47;9.07;;;7.67;;
6093;SDS011;19964;42.060;24.700;2023-12-07T01:30:14;9.30;;;7.53;;
6093;SDS011;19964;42.060;24.700;2023-12-07T01:32:42;9.13;;;7.90;;
6093;SDS011;19964;42.060;24.700;2023-12-07T01:35:09;8.97;;;7.20;;
6093;SDS011;19964;42.060;24.700;2023-12-07T01:37:37;7.93;;;7.13;;
6093;SDS011;19964;42.060;24.700;2023-12-07T01:40:05;8.00;;;7.20;;
6093;SDS011;19964;42.060;24.700;2023-12-07T01:42:35;8.30;;;6.17;;
6093;SDS011;19964;42.060;24.700;2023-12-07T01:45:03;7.03;;;6.20;;
6093;SDS011;19964;42.060;24.700;2023-12-07T01:47:31;7.10;;;6.40;;
6093;SDS011;19964;42.060;24.700;2023-12-07T01:50:00;7.53;;;6.43;;
6093;SDS011;19964;42.060;24.700;2023-12-07T01:52:29;7.27;;;6.53;;
6093;SDS011;19964;42.060;24.700;2023-12-07T01:54:59;6.90;;;6.20;;
6093;SDS011;19964;42.060;24.700;2023-12-07T01:57:26;8.13;;;6.23;;
6093;SDS011;19964;42.060;24.700;2023-12-07T01:59:54;6.77;;;6.00;;
6093;SDS011;19964;42.060;24.700;2023-12-07T02:02:21;7.93;;;6.70;;
6093;SDS011;19964;42.060;24.700;2023-12-07T02:04:48;6.73;;;6.07;;
6093;SDS011;19964;42.060;24.700;2023-12-07T02:07:16;8.60;;;6.63;;
6093;SDS011;19964;42.060;24.700;2023-12-07T02:09:44;7.47;;;6.60;;
6093;SDS011;19964;42.060;24.700;2023-12-07T02:12:13;10.23;;;6.80;;
6093;SDS011;19964;42.060;24.700;2023-12-07T02:14:41;8.33;;;6.57;;
6093;SDS011;19964;42.060;24.700;2023-12-07T02:17:11;7.30;;;6.60;;
6093;SDS011;19964;42.060;24.700;2023-12-07T02:19:47;9.17;;;6.40;;
6093;SDS011;19964;42.060;24.700;2023-12-07T02:22:22;10.07;;;7.20;;
6093;SDS011;19964;42.060;24.700;2023-12-07T02:25:00;8.63;;;7.13;;
6093;SDS011;19964;42.060;24.700;2023-12-07T02:27:35;9.13;;;6.77;;
6093;SDS011;19964;42.060;24.700;2023-12-07T02:30:04;7.83;;;7.07;;
6093;SDS011;19964;42.060;24.700;2023-12-07T02:32:32;11.97;;;7.37;;
6093;SDS011;19964;42.060;24.700;2023-12-07T02:35:00;10.43;;;7.40;;
6093;SDS011;19964;42.060;24.700;2023-12-07T02:37:28;14.77;;;10.40;;
6093;SDS011;19964;42.060;24.700;2023-12-07T02:39:59;18.30;;;13.57;;
6093;SDS011;19964;42.060;24.700;2023-12-07T02:42:29;69.93;;;50.63;;
6093;SDS011;19964;42.060;24.700;2023-12-07T02:44:59;168.10;;;88.00;;
6093;SDS011;19964;42.060;24.700;2023-12-07T02:47:28;303.57;;;151.07;;
6093;SDS011;19964;42.060;24.700;2023-12-07T02:49:55;151.10;;;87.23;;
6093;SDS011;19964;42.060;24.700;2023-12-07T02:52:22;57.53;;;41.63;;
6093;SDS011;19964;42.060;24.700;2023-12-07T02:54:49;63.30;;;46.53;;
6093;SDS011;19964;42.060;24.700;2023-12-07T02:57:16;56.30;;;42.73;;
6093;SDS011;19964;42.060;24.700;2023-12-07T02:59:44;130.10;;;92.03;;
6093;SDS011;19964;42.060;24.700;2023-12-07T03:02:12;55.53;;;41.10;;
6093;SDS011;19964;42.060;24.700;2023-12-07T03:04:39;71.20;;;50.13;;
6093;SDS011;19964;42.060;24.700;2023-12-07T03:07:06;44.10;;;33.00;;
6093;SDS011;19964;42.060;24.700;2023-12-07T03:09:33;36.63;;;29.80;;
6093;SDS011;19964;42.060;24.700;2023-12-07T03:12:00;28.47;;;23.20;;
6093;SDS011;19964;42.060;24.700;2023-12-07T03:14:27;14.77;;;11.47;;
6093;SDS011;19964;42.060;24.700;2023-12-07T03:16:54;16.47;;;10.90;;
6093;SDS011;19964;42.060;24.700;2023-12-07T03:19:23;13.10;;;10.90;;
6093;SDS011;19964;42.060;24.700;2023-12-07T03:21:50;10.90;;;9.83;;
6093;SDS011;19964;42.060;24.700;2023-12-07T03:24:17;11.90;;;10.37;;
6093;SDS011;19964;42.060;24.700;2023-12-07T03:26:44;13.77;;;11.90;;
6093;SDS011;19964;42.060;24.700;2023-12-07T03:29:11;9.20;;;8.30;;
6093;SDS011;19964;42.060;24.700;2023-12-07T03:31:39;8.87;;;7.97;;
6093;SDS011;19964;42.060;24.700;2023-12-07T03:34:06;7.97;;;6.83;;
6093;SDS011;19964;42.060;24.700;2023-12-07T03:36:34;7.90;;;7.10;;
6093;SDS011;19964;42.060;24.700;2023-12-07T03:39:01;7.00;;;6.40;;
6093;SDS011;19964;42.060;24.700;2023-12-07T03:41:30;8.10;;;6.77;;
6093;SDS011;19964;42.060;24.700;2023-12-07T03:43:57;7.57;;;6.47;;
6093;SDS011;19964;42.060;24.700;2023-12-07T03:46:24;6.83;;;6.17;;
6093;SDS011;19964;42.060;24.700;2023-12-07T03:48:51;9.00;;;6.33;;
6093;SDS011;19964;42.060;24.700;2023-12-07T03:51:18;8.27;;;6.53;;
6093;SDS011;19964;42.060;24.700;2023-12-07T03:53:47;6.60;;;6.00;;
6093;SDS011;19964;42.060;24.700;2023-12-07T03:56:22;8.83;;;6.90;;
6093;SDS011;19964;42.060;24.700;2023-12-07T03:58:49;7.70;;;7.00;;
6093;SDS011;19964;42.060;24.700;2023-12-07T04:01:16;7.30;;;6.40;;
6093;SDS011;19964;42.060;24.700;2023-12-07T04:03:44;7.30;;;6.50;;
6093;SDS011;19964;42.060;24.700;2023-12-07T04:06:11;8.20;;;6.87;;
6093;SDS011;19964;42.060;24.700;2023-12-07T04:08:38;8.10;;;6.47;;
6093;SDS011;19964;42.060;24.700;2023-12-07T04:11:07;7.47;;;6.70;;
6093;SDS011;19964;42.060;24.700;2023-12-07T04:13:34;10.30;;;6.73;;
6093;SDS011;19964;42.060;24.700;2023-12-07T04:16:01;9.27;;;7.27;;
6093;SDS011;19964;42.060;24.700;2023-12-07T04:18:29;7.57;;;6.80;;
6093;SDS011;19964;42.060;24.700;2023-12-07T04:20:56;9.27;;;7.27;;
6093;SDS011;19964;42.060;24.700;2023-12-07T04:23:23;7.50;;;6.80;;
6093;SDS011;19964;42.060;24.700;2023-12-07T04:25:51;7.70;;;6.90;;
6093;SDS011;19964;42.060;24.700;2023-12-07T04:28:19;9.60;;;7.30;;
6093;SDS011;19964;42.060;24.700;2023-12-07T04:30:46;7.83;;;6.93;;
6093;SDS011;19964;42.060;24.700;2023-12-07T04:33:13;8.07;;;6.70;;
6093;SDS011;19964;42.060;24.700;2023-12-07T04:35:40;9.20;;;6.77;;
6093;SDS011;19964;42.060;24.700;2023-12-07T04:38:08;7.50;;;6.53;;
6093;SDS011;19964;42.060;24.700;2023-12-07T04:40:35;12.83;;;6.53;;
6093;SDS011;19964;42.060;24.700;2023-12-07T04:43:02;7.77;;;6.50;;
6093;SDS011;19964;42.060;24.700;2023-12-07T04:45:31;7.57;;;6.73;;
6093;SDS011;19964;42.060;24.700;2023-12-07T04:47:58;10.27;;;7.10;;
6093;SDS011;19964;42.060;24.700;2023-12-07T04:50:25;8.00;;;7.17;;
6093;SDS011;19964;42.060;24.700;2023-12-07T04:52:52;9.33;;;6.83;;
6093;SDS011;19964;42.060;24.700;2023-12-07T04:55:19;7.33;;;6.67;;
6093;SDS011;19964;42.060;24.700;2023-12-07T04:57:47;8.50;;;6.63;;
6093;SDS011;19964;42.060;24.700;2023-12-07T05:00:14;10.07;;;6.53;;
6093;SDS011;19964;42.060;24.700;2023-12-07T05:02:43;7.27;;;6.57;;
6093;SDS011;19964;42.060;24.700;2023-12-07T05:05:10;7.30;;;6.60;;
6093;SDS011;19964;42.060;24.700;2023-12-07T05:07:37;7.63;;;6.50;;
6093;SDS011;19964;42.060;24.700;2023-12-07T05:10:04;7.57;;;6.40;;
6093;SDS011;19964;42.060;24.700;2023-12-07T05:12:32;7.40;;;6.60;;
6093;SDS011;19964;42.060;24.700;2023-12-07T05:14:59;8.80;;;6.93;;
6093;SDS011;19964;42.060;24.700;2023-12-07T05:17:26;8.93;;;6.60;;
6093;SDS011;19964;42.060;24.700;2023-12-07T05:19:54;7.93;;;6.13;;
6093;SDS011;19964;42.060;24.700;2023-12-07T05:22:21;8.43;;;5.87;;
6093;SDS011;19964;42.060;24.700;2023-12-07T05:24:48;7.50;;;6.70;;
6093;SDS011;19964;42.060;24.700;2023-12-07T05:27:16;6.73;;;6.10;;
6093;SDS011;19964;42.060;24.700;2023-12-07T05:29:43;9.37;;;7.20;;
6093;SDS011;19964;42.060;24.700;2023-12-07T05:32:10;7.23;;;6.40;;
6093;SDS011;19964;42.060;24.700;2023-12-07T05:34:37;8.17;;;6.60;;
6093;SDS011;19964;42.060;24.700;2023-12-07T05:37:06;7.60;;;6.63;;
6093;SDS011;19964;42.060;24.700;2023-12-07T05:39:33;10.20;;;7.57;;
6093;SDS011;19964;42.060;24.700;2023-12-07T05:42:00;7.77;;;6.90;;
6093;SDS011;19964;42.060;24.700;2023-12-07T05:44:29;11.90;;;8.63;;
6093;SDS011;19964;42.060;24.700;2023-12-07T05:46:56;10.37;;;8.20;;
6093;SDS011;19964;42.060;24.700;2023-12-07T05:49:24;7.53;;;6.43;;
6093;SDS011;19964;42.060;24.700;2023-12-07T05:51:51;6.87;;;6.17;;
6093;SDS011;19964;42.060;24.700;2023-12-07T05:54:20;8.27;;;7.27;;
6093;SDS011;19964;42.060;24.700;2023-12-07T05:56:47;9.03;;;7.80;;
6093;SDS011;19964;42.060;24.700;2023-12-07T05:59:14;6.53;;;5.93;;
6093;SDS011;19964;42.060;24.700;2023-12-07T06:01:41;6.70;;;6.00;;
6093;SDS011;19964;42.060;24.700;2023-12-07T06:04:09;7.00;;;6.30;;
6093;SDS011;19964;42.060;24.700;2023-12-07T06:06:37;7.13;;;6.43;;
6093;SDS011;19964;42.060;24.700;2023-12-07T06:09:04;9.47;;;7.43;;
6093;SDS011;19964;42.060;24.700;2023-12-07T06:11:34;10.43;;;7.30;;
6093;SDS011;19964;42.060;24.700;2023-12-07T06:14:01;9.93;;;7.93;;
6093;SDS011;19964;42.060;24.700;2023-12-07T06:16:31;10.83;;;7.97;;
6093;SDS011;19964;42.060;24.700;2023-12-07T06:18:58;11.47;;;8.33;;
6093;SDS011;19964;42.060;24.700;2023-12-07T06:21:25;10.10;;;8.27;;
6093;SDS011;19964;42.060;24.700;2023-12-07T06:23:54;11.27;;;8.57;;
6093;SDS011;19964;42.060;24.700;2023-12-07T06:26:22;10.97;;;9.13;;
6093;SDS011;19964;42.060;24.700;2023-12-07T06:28:50;10.53;;;8.90;;
6093;SDS011;19964;42.060;24.700;2023-12-07T06:31:17;10.03;;;8.53;;
6093;SDS011;19964;42.060;24.700;2023-12-07T06:33:46;12.53;;;8.83;;
6093;SDS011;19964;42.060;24.700;2023-12-07T06:36:17;13.77;;;8.20;;
6093;SDS011;19964;42.060;24.700;2023-12-07T06:38:45;12.97;;;9.50;;
6093;SDS011;19964;42.060;24.700;2023-12-07T06:43:40;13.43;;;9.30;;
6093;SDS011;19964;42.060;24.700;2023-12-07T06:46:10;13.10;;;9.00;;
6093;SDS011;19964;42.060;24.700;2023-12-07T06:48:37;11.50;;;8.93;;
6093;SDS011;19964;42.060;24.700;2023-12-07T06:51:04;12.20;;;8.70;;
6093;SDS011;19964;42.060;24.700;2023-12-07T06:53:32;15.13;;;9.83;;
6093;SDS011;19964;42.060;24.700;2023-12-07T06:55:59;12.43;;;9.40;;
6093;SDS011;19964;42.060;24.700;2023-12-07T06:58:26;10.57;;;8.63;;
6093;SDS011;19964;42.060;24.700;2023-12-07T07:00:53;10.63;;;8.60;;
6093;SDS011;19964;42.060;24.700;2023-12-07T07:03:21;12.73;;;9.43;;
6093;SDS011;19964;42.060;24.700;2023-12-07T07:05:48;12.20;;;9.13;;
6093;SDS011;19964;42.060;24.700;2023-12-07T07:08:15;15.43;;;9.33;;
6093;SDS011;19964;42.060;24.700;2023-12-07T07:10:43;11.73;;;9.17;;
6093;SDS011;19964;42.060;24.700;2023-12-07T07:13:11;11.67;;;9.30;;
6093;SDS011;19964;42.060;24.700;2023-12-07T07:15:41;24.23;;;17.53;;
6093;SDS011;19964;42.060;24.700;2023-12-07T07:18:08;24.70;;;15.83;;
6093;SDS011;19964;42.060;24.700;2023-12-07T07:20:37;27.90;;;17.03;;
6093;SDS011;19964;42.060;24.700;2023-12-07T07:23:04;28.23;;;18.37;;
6093;SDS011;19964;42.060;24.700;2023-12-07T07:25:31;285.57;;;132.47;;
6093;SDS011;19964;42.060;24.700;2023-12-07T07:27:58;246.73;;;105.37;;
6093;SDS011;19964;42.060;24.700;2023-12-07T07:30:25;54.40;;;30.33;;
6093;SDS011;19964;42.060;24.700;2023-12-07T07:32:52;47.60;;;32.37;;
6093;SDS011;19964;42.060;24.700;2023-12-07T07:35:19;20.60;;;16.07;;
6093;SDS011;19964;42.060;24.700;2023-12-07T07:37:48;28.73;;;18.97;;
6093;SDS011;19964;42.060;24.700;2023-12-07T07:40:15;19.43;;;14.30;;
6093;SDS011;19964;42.060;24.700;2023-12-07T07:42:42;18.40;;;13.17;;
6093;SDS011;19964;42.060;24.700;2023-12-07T07:45:09;16.70;;;13.40;;
6093;SDS011;19964;42.060;24.700;2023-12-07T07:47:36;15.83;;;12.00;;
6093;SDS011;19964;42.060;24.700;2023-12-07T07:50:04;158.57;;;84.17;;
6093;SDS011;19964;42.060;24.700;2023-12-07T07:52:32;30.10;;;20.77;;
6093;SDS011;19964;42.060;24.700;2023-12-07T07:55:01;22.37;;;16.90;;
6093;SDS011;19964;42.060;24.700;2023-12-07T07:57:29;20.23;;;15.20;;
6093;SDS011;19964;42.060;24.700;2023-12-07T07:59:57;18.57;;;14.83;;
6093;SDS011;19964;42.060;24.700;2023-12-07T08:02:24;19.00;;;15.30;;
6093;SDS011;19964;42.060;24.700;2023-12-07T08:04:52;18.27;;;14.33;;
6093;SDS011;19964;42.060;24.700;2023-12-07T08:07:19;18.47;;;14.80;;
6093;SDS011;19964;42.060;24.700;2023-12-07T08:09:46;25.80;;;18.00;;
6093;SDS011;19964;42.060;24.700;2023-12-07T08:12:14;19.83;;;15.23;;
6093;SDS011;19964;42.060;24.700;2023-12-07T08:14:41;19.87;;;15.70;;
6093;SDS011;19964;42.060;24.700;2023-12-07T08:17:11;23.43;;;15.50;;
6093;SDS011;19964;42.060;24.700;2023-12-07T08:19:38;19.80;;;15.63;;
6093;SDS011;19964;42.060;24.700;2023-12-07T08:22:05;21.30;;;15.60;;
6093;SDS011;19964;42.060;24.700;2023-12-07T08:24:32;20.13;;;16.33;;
6093;SDS011;19964;42.060;24.700;2023-12-07T08:26:59;19.77;;;17.00;;
6093;SDS011;19964;42.060;24.700;2023-12-07T08:29:29;26.13;;;19.97;;
6093;SDS011;19964;42.060;24.700;2023-12-07T08:31:57;22.33;;;18.00;;
6093;SDS011;19964;42.060;24.700;2023-12-07T08:34:24;24.67;;;18.53;;
6093;SDS011;19964;42.060;24.700;2023-12-07T08:36:51;21.83;;;17.03;;
6093;SDS011;19964;42.060;24.700;2023-12-07T08:39:18;22.43;;;17.07;;
6093;SDS011;19964;42.060;24.700;2023-12-07T08:41:45;23.10;;;17.50;;
6093;SDS011;19964;42.060;24.700;2023-12-07T08:44:12;23.97;;;17.47;;
6093;SDS011;19964;42.060;24.700;2023-12-07T08:46:41;24.57;;;16.60;;
6093;SDS011;19964;42.060;24.700;2023-12-07T08:49:10;20.80;;;14.77;;
6093;SDS011;19964;42.060;24.700;2023-12-07T08:51:37;21.13;;;15.20;;
6093;SDS011;19964;42.060;24.700;2023-12-07T08:54:04;22.73;;;15.20;;
6093;SDS011;19964;42.060;24.700;2023-12-07T08:56:31;22.03;;;15.93;;
6093;SDS011;19964;42.060;24.700;2023-12-07T08:58:58;22.57;;;16.27;;
6093;SDS011;19964;42.060;24.700;2023-12-07T09:01:26;17.47;;;12.67;;
6093;SDS011;19964;42.060;24.700;2023-12-07T09:03:54;18.70;;;13.80;;
6093;SDS011;19964;42.060;24.700;2023-12-07T09:06:21;19.07;;;14.93;;
6093;SDS011;19964;42.060;24.700;2023-12-07T09:08:48;19.60;;;15.20;;
6093;SDS011;19964;42.060;24.700;2023-12-07T09:11:15;23.00;;;16.83;;
6093;SDS011;19964;42.060;24.700;2023-12-07T09:13:42;28.10;;;18.37;;
6093;SDS011;19964;42.060;24.700;2023-12-07T09:16:09;24.87;;;18.13;;
6093;SDS011;19964;42.060;24.700;2023-12-07T09:18:36;28.03;;;17.60;;
6093;SDS011;19964;42.060;24.700;2023-12-07T09:21:05;25.93;;;16.80;;
6093;SDS011;19964;42.060;24.700;2023-12-07T09:23:33;24.57;;;17.13;;
6093;SDS011;19964;42.060;24.700;2023-12-07T09:26:02;24.03;;;17.67;;
6093;SDS011;19964;42.060;24.700;2023-12-07T09:28:31;25.67;;;17.97;;
6093;SDS011;19964;42.060;24.700;2023-12-07T09:30:59;24.47;;;16.70;;
6093;SDS011;19964;42.060;24.700;2023-12-07T09:33:26;26.43;;;18.00;;
6093;SDS011;19964;42.060;24.700;2023-12-07T09:35:53;21.87;;;17.07;;
6093;SDS011;19964;42.060;24.700;2023-12-07T09:38:22;27.20;;;18.63;;
6093;SDS011;19964;42.060;24.700;2023-12-07T09:40:52;25.47;;;17.67;;
6093;SDS011;19964;42.060;24.700;2023-12-07T09:43:20;26.13;;;17.13;;
6093;SDS011;19964;42.060;24.700;2023-12-07T09:45:48;29.47;;;20.40;;
6093;SDS011;19964;42.060;24.700;2023-12-07T09:48:16;28.60;;;21.07;;
6093;SDS011;19964;42.060;24.700;2023-12-07T09:50:44;31.10;;;20.53;;
6093;SDS011;19964;42.060;24.700;2023-12-07T09:53:12;29.07;;;20.37;;
6093;SDS011;19964;42.060;24.700;2023-12-07T09:55:40;31.73;;;19.93;;
6093;SDS011;19964;42.060;24.700;2023-12-07T09:58:07;31.40;;;21.50;;
6093;SDS011;19964;42.060;24.700;2023-12-07T10:00:34;31.33;;;21.03;;
6093;SDS011;19964;42.060;24.700;2023-12-07T10:03:02;32.50;;;21.00;;
6093;SDS011;19964;42.060;24.700;2023-12-07T10:05:29;36.13;;;23.73;;
6093;SDS011;19964;42.060;24.700;2023-12-07T10:07:56;36.20;;;22.87;;
6093;SDS011;19964;42.060;24.700;2023-12-07T10:10:23;31.33;;;21.07;;
6093;SDS011;19964;42.060;24.700;2023-12-07T10:12:52;33.27;;;21.53;;
6093;SDS011;19964;42.060;24.700;2023-12-07T10:15:21;34.30;;;20.43;;
6093;SDS011;19964;42.060;24.700;2023-12-07T10:17:50;31.70;;;21.77;;
6093;SDS011;19964;42.060;24.700;2023-12-07T10:20:19;30.87;;;21.60;;
6093;SDS011;19964;42.060;24.700;2023-12-07T10:22:48;31.77;;;20.13;;
6093;SDS011;19964;42.060;24.700;2023-12-07T10:25:27;30.93;;;21.53;;
6093;SDS011;19964;42.060;24.700;2023-12-07T10:27:57;29.70;;;20.97;;
6093;SDS011;19964;42.060;24.700;2023-12-07T10:30:24;38.83;;;23.30;;
6093;SDS011;19964;42.060;24.700;2023-12-07T10:32:53;37.23;;;25.13;;
6093;SDS011;19964;42.060;24.700;2023-12-07T10:35:20;34.53;;;23.47;;
6093;SDS011;19964;42.060;24.700;2023-12-07T10:37:47;39.77;;;27.03;;
6093;SDS011;19964;42.060;24.700;2023-12-07T10:40:14;43.43;;;28.67;;
6093;SDS011;19964;42.060;24.700;2023-12-07T10:42:42;41.77;;;28.03;;
6093;SDS011;19964;42.060;24.700;2023-12-07T10:45:16;44.20;;;27.47;;
6093;SDS011;19964;42.060;24.700;2023-12-07T10:47:44;38.20;;;26.03;;
6093;SDS011;19964;42.060;24.700;2023-12-07T10:50:11;40.47;;;28.67;;
6093;SDS011;19964;42.060;24.700;2023-12-07T10:52:44;41.10;;;26.93;;
6093;SDS011;19964;42.060;24.700;2023-12-07T10:55:13;43.53;;;28.07;;
6093;SDS011;19964;42.060;24.700;2023-12-07T10:57:44;40.70;;;27.50;;
6093;SDS011;19964;42.060;24.700;2023-12-07T11:00:13;41.27;;;27.23;;
6093;SDS011;19964;42.060;24.700;2023-12-07T11:02:42;39.67;;;27.47;;
6093;SDS011;19964;42.060;24.700;2023-12-07T11:05:11;48.23;;;30.30;;
6093;SDS011;19964;42.060;24.700;2023-12-07T11:07:41;49.57;;;31.03;;
6093;SDS011;19964;42.060;24.700;2023-12-07T11:10:17;43.50;;;28.43;;
6093;SDS011;19964;42.060;24.700;2023-12-07T11:12:49;46.63;;;31.00;;
6093;SDS011;19964;42.060;24.700;2023-12-07T11:15:22;47.57;;;30.67;;
6093;SDS011;19964;42.060;24.700;2023-12-07T11:17:54;44.80;;;29.83;;
6093;SDS011;19964;42.060;24.700;2023-12-07T11:20:25;45.53;;;31.33;;
6093;SDS011;19964;42.060;24.700;2023-12-07T11:22:59;50.03;;;30.03;;
6093;SDS011;19964;42.060;24.700;2023-12-07T11:25:26;45.53;;;31.33;;
6093;SDS011;19964;42.060;24.700;2023-12-07T11:27:59;43.67;;;28.20;;
6093;SDS011;19964;42.060;24.700;2023-12-07T11:30:27;41.87;;;28.23;;
6093;SDS011;19964;42.060;24.700;2023-12-07T11:32:55;48.73;;;30.80;;
6093;SDS011;19964;42.060;24.700;2023-12-07T11:35:23;52.90;;;31.77;;
6093;SDS011;19964;42.060;24.700;2023-12-07T11:38:02;53.03;;;33.90;;
6093;SDS011;19964;42.060;24.700;2023-12-07T11:40:31;53.30;;;33.83;;
6093;SDS011;19964;42.060;24.700;2023-12-07T11:43:02;56.33;;;34.47;;
6093;SDS011;19964;42.060;24.700;2023-12-07T11:45:36;50.20;;;32.77;;
6093;SDS011;19964;42.060;24.700;2023-12-07T11:48:09;53.63;;;32.73;;
6093;SDS011;19964;42.060;24.700;2023-12-07T11:53:24;47.80;;;31.27;;
6093;SDS011;19964;42.060;24.700;2023-12-07T11:55:52;48.50;;;31.70;;
6093;SDS011;19964;42.060;24.700;2023-12-07T11:58:19;53.07;;;33.30;;
6093;SDS011;19964;42.060;24.700;2023-12-07T12:00:47;50.10;;;32.23;;
6093;SDS011;19964;42.060;24.700;2023-12-07T12:03:16;48.20;;;29.57;;
6093;SDS011;19964;42.060;24.700;2023-12-07T12:05:43;47.63;;;30.93;;
6093;SDS011;19964;42.060;24.700;2023-12-07T12:08:10;42.07;;;29.03;;
6093;SDS011;19964;42.060;24.700;2023-12-07T12:10:37;41.83;;;27.50;;
6093;SDS011;19964;42.060;24.700;2023-12-07T12:13:07;41.60;;;29.03;;
6093;SDS011;19964;42.060;24.700;2023-12-07T12:15:34;41.47;;;26.67;;
6093;SDS011;19964;42.060;24.700;2023-12-07T12:18:02;42.00;;;26.33;;
6093;SDS011;19964;42.060;24.700;2023-12-07T12:20:31;41.33;;;26.87;;
6093;SDS011;19964;42.060;24.700;2023-12-07T12:22:58;41.80;;;26.93;;
6093;SDS011;19964;42.060;24.700;2023-12-07T12:25:26;28.07;;;19.63;;
6093;SDS011;19964;42.060;24.700;2023-12-07T12:27:55;37.30;;;23.43;;
6093;SDS011;19964;42.060;24.700;2023-12-07T12:30:24;32.33;;;23.83;;
6093;SDS011;19964;42.060;24.700;2023-12-07T12:32:51;30.63;;;21.70;;
6093;SDS011;19964;42.060;24.700;2023-12-07T12:35:18;19.90;;;14.93;;
6093;SDS011;19964;42.060;24.700;2023-12-07T12:37:47;17.23;;;13.83;;
6093;SDS011;19964;42.060;24.700;2023-12-07T12:40:16;16.87;;;13.43;;
6093;SDS011;19964;42.060;24.700;2023-12-07T12:42:44;14.73;;;12.40;;
6093;SDS011;19964;42.060;24.700;2023-12-07T12:45:12;19.10;;;15.17;;
6093;SDS011;19964;42.060;24.700;2023-12-07T12:47:40;28.67;;;19.00;;
6093;SDS011;19964;42.060;24.700;2023-12-07T12:50:08;26.70;;;18.53;;
6093;SDS011;19964;42.060;24.700;2023-12-07T12:52:36;26.90;;;18.50;;
6093;SDS011;19964;42.060;24.700;2023-12-07T12:55:08;28.53;;;19.00;;
6093;SDS011;19964;42.060;24.700;2023-12-07T12:57:36;28.47;;;18.80;;
6093;SDS011;19964;42.060;24.700;2023-12-07T13:00:04;23.40;;;17.30;;
6093;SDS011;19964;42.060;24.700;2023-12-07T13:02:33;23.93;;;17.73;;
6093;SDS011;19964;42.060;24.700;2023-12-07T13:05:00;23.17;;;17.70;;
6093;SDS011;19964;42.060;24.700;2023-12-07T13:07:27;25.90;;;18.73;;
6093;SDS011;19964;42.060;24.700;2023-12-07T13:09:54;31.83;;;20.50;;
6093;SDS011;19964;42.060;24.700;2023-12-07T13:12:23;30.77;;;20.27;;
6093;SDS011;19964;42.060;24.700;2023-12-07T13:14:53;35.93;;;21.73;;
6093;SDS011;19964;42.060;24.700;2023-12-07T13:17:20;29.73;;;21.43;;
6093;SDS011;19964;42.060;24.700;2023-12-07T13:19:47;32.33;;;20.87;;
6093;SDS011;19964;42.060;24.700;2023-12-07T13:22:14;30.80;;;20.47;;
6093;SDS011;19964;42.060;24.700;2023-12-07T13:24:41;30.83;;;20.60;;
6093;SDS011;19964;42.060;24.700;2023-12-07T13:27:08;33.13;;;21.40;;
6093;SDS011;19964;42.060;24.700;2023-12-07T13:29:37;35.70;;;22.73;;
6093;SDS011;19964;42.060;24.700;2023-12-07T13:32:04;36.90;;;23.63;;
6093;SDS011;19964;42.060;24.700;2023-12-07T13:34:31;33.70;;;23.57;;
6093;SDS011;19964;42.060;24.700;2023-12-07T13:36:58;35.23;;;22.37;;
6093;SDS011;19964;42.060;24.700;2023-12-07T13:39:26;33.80;;;21.87;;
6093;SDS011;19964;42.060;24.700;2023-12-07T13:41:54;114.20;;;57.93;;
6093;SDS011;19964;42.060;24.700;2023-12-07T13:44:21;58.40;;;31.60;;
6093;SDS011;19964;42.060;24.700;2023-12-07T13:46:50;40.17;;;25.67;;
6093;SDS011;19964;42.060;24.700;2023-12-07T13:49:19;32.17;;;21.47;;
6093;SDS011;19964;42.060;24.700;2023-12-07T13:51:46;29.83;;;19.67;;
6093;SDS011;19964;42.060;24.700;2023-12-07T13:54:14;32.70;;;21.63;;
6093;SDS011;19964;42.060;24.700;2023-12-07T13:56:41;36.37;;;21.97;;
6093;SDS011;19964;42.060;24.700;2023-12-07T13:59:08;36.17;;;22.40;;
6093;SDS011;19964;42.060;24.700;2023-12-07T14:01:37;33.20;;;22.77;;
6093;SDS011;19964;42.060;24.700;2023-12-07T14:04:06;37.57;;;24.20;;
6093;SDS011;19964;42.060;24.700;2023-12-07T14:06:33;42.70;;;23.70;;
6093;SDS011;19964;42.060;24.700;2023-12-07T14:09:01;47.20;;;27.00;;
6093;SDS011;19964;42.060;24.700;2023-12-07T14:11:29;41.60;;;26.33;;
6093;SDS011;19964;42.060;24.700;2023-12-07T14:13:56;40.73;;;25.90;;
6093;SDS011;19964;42.060;24.700;2023-12-07T14:16:23;204.63;;;126.87;;
6093;SDS011;19964;42.060;24.700;2023-12-07T14:18:50;67.27;;;40.83;;
6093;SDS011;19964;42.060;24.700;2023-12-07T14:21:20;122.90;;;67.17;;
6093;SDS011;19964;42.060;24.700;2023-12-07T14:23:47;66.10;;;43.27;;
6093;SDS011;19964;42.060;24.700;2023-12-07T14:26:14;91.70;;;59.57;;
6093;SDS011;19964;42.060;24.700;2023-12-07T14:38:39;12.30;;;10.10;;
6093;SDS011;19964;42.060;24.700;2023-12-07T14:41:08;12.13;;;10.00;;
6093;SDS011;19964;42.060;24.700;2023-12-07T15:18:01;14.80;;;12.13;;
6093;SDS011;19964;42.060;24.700;2023-12-07T15:20:29;16.70;;;13.97;;
6093;SDS011;19964;42.060;24.700;2023-12-07T15:22:56;16.53;;;13.43;;
6093;SDS011;19964;42.060;24.700;2023-12-07T15:25:23;18.10;;;13.30;;